sensor_id;sensor_type;location;lat;lon;timestamp;P1;durP1;ratioP1;P2;durP2;ratioP2
23543;SDS011;11950;51.230;4.012;2023-01-26T00:01:00;87.03;;;29.90;;
23543;SDS011;11950;51.230;4.012;2023-01-26T00:03:32;89.93;;;32.38;;
23543;SDS011;11950;51.230;4.012;2023-01-26T00:06:01;85.00;;;32.53;;
23543;SDS011;11950;51.230;4.012;2023-01-26T00:08:28;84.47;;;32.28;;
23543;SDS011;11950;51.230;4.012;2023-01-26T00:10:55;85.93;;;30.65;;
23543;SDS011;11950;51.230;4.012;2023-01-26T00:13:21;85.88;;;31.98;;
23543;SDS011;11950;51.230;4.012;2023-01-26T00:15:48;88.38;;;32.67;;
23543;SDS011;11950;51.230;4.012;2023-01-26T00:18:15;86.13;;;30.02;;
23543;SDS011;11950;51.230;4.012;2023-01-26T00:20:41;82.00;;;32.03;;
23543;SDS011;11950;51.230;4.012;2023-01-26T00:23:08;77.85;;;30.17;;
23543;SDS011;11950;51.230;4.012;2023-01-26T00:25:36;82.75;;;30.95;;
23543;SDS011;11950;51.230;4.012;2023-01-26T00:28:04;80.32;;;30.25;;
23543;SDS011;11950;51.230;4.012;2023-01-26T00:30:31;82.85;;;29.77;;
23543;SDS011;11950;51.230;4.012;2023-01-26T00:32:57;87.22;;;33.13;;
23543;SDS011;11950;51.230;4.012;2023-01-26T00:35:23;85.70;;;31.50;;
23543;SDS011;11950;51.230;4.012;2023-01-26T00:37:50;73.40;;;28.92;;
23543;SDS011;11950;51.230;4.012;2023-01-26T00:40:16;78.18;;;31.05;;
23543;SDS011;11950;51.230;4.012;2023-01-26T00:42:43;79.75;;;30.60;;
23543;SDS011;11950;51.230;4.012;2023-01-26T00:45:09;79.78;;;29.20;;
23543;SDS011;11950;51.230;4.012;2023-01-26T00:47:37;73.28;;;28.55;;
23543;SDS011;11950;51.230;4.012;2023-01-26T00:50:04;82.25;;;29.58;;
23543;SDS011;11950;51.230;4.012;2023-01-26T00:52:30;74.07;;;28.48;;
23543;SDS011;11950;51.230;4.012;2023-01-26T00:54:57;79.03;;;29.88;;
23543;SDS011;11950;51.230;4.012;2023-01-26T00:57:23;80.68;;;29.48;;
23543;SDS011;11950;51.230;4.012;2023-01-26T00:59:50;78.03;;;30.45;;
23543;SDS011;11950;51.230;4.012;2023-01-26T01:02:16;77.95;;;28.58;;
23543;SDS011;11950;51.230;4.012;2023-01-26T01:04:42;76.40;;;32.15;;
23543;SDS011;11950;51.230;4.012;2023-01-26T01:07:09;79.80;;;31.13;;
23543;SDS011;11950;51.230;4.012;2023-01-26T01:09:36;79.68;;;31.17;;
23543;SDS011;11950;51.230;4.012;2023-01-26T01:12:02;78.05;;;29.75;;
23543;SDS011;11950;51.230;4.012;2023-01-26T01:14:28;85.93;;;31.77;;
23543;SDS011;11950;51.230;4.012;2023-01-26T01:16:55;83.20;;;30.42;;
23543;SDS011;11950;51.230;4.012;2023-01-26T01:19:21;84.90;;;31.35;;
23543;SDS011;11950;51.230;4.012;2023-01-26T01:21:47;78.30;;;31.10;;
23543;SDS011;11950;51.230;4.012;2023-01-26T01:24:14;81.05;;;31.10;;
23543;SDS011;11950;51.230;4.012;2023-01-26T01:26:40;74.47;;;29.38;;
23543;SDS011;11950;51.230;4.012;2023-01-26T01:29:06;83.97;;;31.88;;
23543;SDS011;11950;51.230;4.012;2023-01-26T01:31:36;73.28;;;29.48;;
23543;SDS011;11950;51.230;4.012;2023-01-26T01:34:03;75.75;;;29.95;;
23543;SDS011;11950;51.230;4.012;2023-01-26T01:36:29;78.22;;;30.85;;
23543;SDS011;11950;51.230;4.012;2023-01-26T01:38:56;75.55;;;30.38;;
23543;SDS011;11950;51.230;4.012;2023-01-26T01:41:23;80.22;;;30.95;;
23543;SDS011;11950;51.230;4.012;2023-01-26T01:43:51;78.22;;;29.23;;
23543;SDS011;11950;51.230;4.012;2023-01-26T01:46:36;75.07;;;27.85;;
23543;SDS011;11950;51.230;4.012;2023-01-26T01:51:32;75.68;;;28.23;;
23543;SDS011;11950;51.230;4.012;2023-01-26T01:54:04;74.90;;;29.05;;
23543;SDS011;11950;51.230;4.012;2023-01-26T01:56:35;79.03;;;29.77;;
23543;SDS011;11950;51.230;4.012;2023-01-26T01:59:04;78.50;;;29.20;;
23543;SDS011;11950;51.230;4.012;2023-01-26T02:01:33;74.53;;;28.48;;
23543;SDS011;11950;51.230;4.012;2023-01-26T02:04:00;77.45;;;28.60;;
23543;SDS011;11950;51.230;4.012;2023-01-26T02:06:46;73.80;;;28.65;;
23543;SDS011;11950;51.230;4.012;2023-01-26T02:09:15;66.45;;;26.90;;
23543;SDS011;11950;51.230;4.012;2023-01-26T02:12:03;73.50;;;28.98;;
23543;SDS011;11950;51.230;4.012;2023-01-26T02:14:33;76.88;;;28.45;;
23543;SDS011;11950;51.230;4.012;2023-01-26T02:16:59;75.80;;;28.67;;
23543;SDS011;11950;51.230;4.012;2023-01-26T02:19:29;80.68;;;29.77;;
23543;SDS011;11950;51.230;4.012;2023-01-26T02:22:27;69.68;;;29.05;;
23543;SDS011;11950;51.230;4.012;2023-01-26T02:27:57;76.43;;;28.45;;
23543;SDS011;11950;51.230;4.012;2023-01-26T02:30:24;71.43;;;28.15;;
23543;SDS011;11950;51.230;4.012;2023-01-26T02:32:51;74.22;;;28.50;;
23543;SDS011;11950;51.230;4.012;2023-01-26T02:35:18;77.45;;;27.92;;
23543;SDS011;11950;51.230;4.012;2023-01-26T02:37:45;75.25;;;28.10;;
23543;SDS011;11950;51.230;4.012;2023-01-26T02:40:25;74.85;;;28.98;;
23543;SDS011;11950;51.230;4.012;2023-01-26T02:43:25;78.78;;;28.85;;
23543;SDS011;11950;51.230;4.012;2023-01-26T02:45:52;75.95;;;28.75;;
23543;SDS011;11950;51.230;4.012;2023-01-26T02:48:20;78.22;;;28.98;;
23543;SDS011;11950;51.230;4.012;2023-01-26T02:51:05;76.13;;;28.65;;
23543;SDS011;11950;51.230;4.012;2023-01-26T02:53:32;78.13;;;27.73;;
23543;SDS011;11950;51.230;4.012;2023-01-26T02:56:00;70.28;;;27.58;;
23543;SDS011;11950;51.230;4.012;2023-01-26T02:58:26;75.07;;;28.15;;
23543;SDS011;11950;51.230;4.012;2023-01-26T03:00:53;77.15;;;29.05;;
23543;SDS011;11950;51.230;4.012;2023-01-26T03:03:24;78.97;;;30.38;;
23543;SDS011;11950;51.230;4.012;2023-01-26T03:06:09;75.00;;;28.95;;
23543;SDS011;11950;51.230;4.012;2023-01-26T03:08:37;80.32;;;29.48;;
23543;SDS011;11950;51.230;4.012;2023-01-26T03:11:04;81.28;;;29.92;;
23543;SDS011;11950;51.230;4.012;2023-01-26T03:13:31;74.25;;;28.35;;
23543;SDS011;11950;51.230;4.012;2023-01-26T03:15:59;77.72;;;27.92;;
23543;SDS011;11950;51.230;4.012;2023-01-26T03:18:32;78.05;;;28.23;;
23543;SDS011;11950;51.230;4.012;2023-01-26T03:21:21;77.65;;;28.23;;
23543;SDS011;11950;51.230;4.012;2023-01-26T03:24:08;81.30;;;30.00;;
23543;SDS011;11950;51.230;4.012;2023-01-26T03:26:57;79.03;;;28.80;;
23543;SDS011;11950;51.230;4.012;2023-01-26T03:29:42;75.97;;;26.90;;
23543;SDS011;11950;51.230;4.012;2023-01-26T03:32:09;80.05;;;28.50;;
23543;SDS011;11950;51.230;4.012;2023-01-26T03:34:37;78.97;;;28.10;;
23543;SDS011;11950;51.230;4.012;2023-01-26T03:37:04;80.30;;;29.00;;
23543;SDS011;11950;51.230;4.012;2023-01-26T03:39:53;78.78;;;27.33;;
23543;SDS011;11950;51.230;4.012;2023-01-26T03:42:38;84.18;;;28.77;;
23543;SDS011;11950;51.230;4.012;2023-01-26T03:45:22;73.22;;;26.15;;
23543;SDS011;11950;51.230;4.012;2023-01-26T03:48:08;78.85;;;28.50;;
23543;SDS011;11950;51.230;4.012;2023-01-26T03:50:56;74.72;;;27.98;;
23543;SDS011;11950;51.230;4.012;2023-01-26T03:53:41;71.03;;;27.73;;
23543;SDS011;11950;51.230;4.012;2023-01-26T03:56:26;71.63;;;26.15;;
23543;SDS011;11950;51.230;4.012;2023-01-26T03:59:03;71.28;;;27.52;;
23543;SDS011;11950;51.230;4.012;2023-01-26T04:01:37;68.93;;;26.02;;
23543;SDS011;11950;51.230;4.012;2023-01-26T04:04:05;69.70;;;25.90;;
23543;SDS011;11950;51.230;4.012;2023-01-26T04:06:51;68.68;;;25.88;;
23543;SDS011;11950;51.230;4.012;2023-01-26T04:09:42;66.68;;;25.05;;
23543;SDS011;11950;51.230;4.012;2023-01-26T04:12:09;63.92;;;25.13;;
23543;SDS011;11950;51.230;4.012;2023-01-26T04:14:46;67.00;;;25.33;;
23543;SDS011;11950;51.230;4.012;2023-01-26T04:17:31;65.88;;;24.73;;
23543;SDS011;11950;51.230;4.012;2023-01-26T04:20:16;61.65;;;23.65;;
23543;SDS011;11950;51.230;4.012;2023-01-26T04:23:01;61.55;;;22.83;;
23543;SDS011;11950;51.230;4.012;2023-01-26T04:25:27;62.53;;;22.63;;
23543;SDS011;11950;51.230;4.012;2023-01-26T04:27:55;59.88;;;23.08;;
23543;SDS011;11950;51.230;4.012;2023-01-26T04:30:22;54.42;;;21.48;;
23543;SDS011;11950;51.230;4.012;2023-01-26T04:32:49;59.85;;;22.35;;
23543;SDS011;11950;51.230;4.012;2023-01-26T04:35:17;54.67;;;21.40;;
23543;SDS011;11950;51.230;4.012;2023-01-26T04:37:43;52.38;;;20.50;;
23543;SDS011;11950;51.230;4.012;2023-01-26T04:40:10;54.70;;;20.83;;
23543;SDS011;11950;51.230;4.012;2023-01-26T04:42:37;57.05;;;21.90;;
23543;SDS011;11950;51.230;4.012;2023-01-26T04:45:04;56.03;;;21.67;;
23543;SDS011;11950;51.230;4.012;2023-01-26T04:47:31;55.65;;;21.25;;
23543;SDS011;11950;51.230;4.012;2023-01-26T04:49:58;52.75;;;21.33;;
23543;SDS011;11950;51.230;4.012;2023-01-26T04:52:25;55.55;;;21.50;;
23543;SDS011;11950;51.230;4.012;2023-01-26T04:54:51;55.15;;;22.38;;
23543;SDS011;11950;51.230;4.012;2023-01-26T04:57:18;53.63;;;21.35;;
23543;SDS011;11950;51.230;4.012;2023-01-26T04:59:50;52.58;;;21.63;;
23543;SDS011;11950;51.230;4.012;2023-01-26T05:02:18;52.80;;;20.58;;
23543;SDS011;11950;51.230;4.012;2023-01-26T05:04:44;51.72;;;20.67;;
23543;SDS011;11950;51.230;4.012;2023-01-26T05:07:13;47.72;;;20.60;;
23543;SDS011;11950;51.230;4.012;2023-01-26T05:09:40;51.38;;;19.92;;
23543;SDS011;11950;51.230;4.012;2023-01-26T05:12:26;50.45;;;20.08;;
23543;SDS011;11950;51.230;4.012;2023-01-26T05:15:13;43.53;;;18.90;;
23543;SDS011;11950;51.230;4.012;2023-01-26T05:17:53;54.47;;;20.35;;
23543;SDS011;11950;51.230;4.012;2023-01-26T05:20:51;49.13;;;19.58;;
23543;SDS011;11950;51.230;4.012;2023-01-26T05:23:31;51.42;;;21.38;;
23543;SDS011;11950;51.230;4.012;2023-01-26T05:26:24;45.03;;;19.13;;
23543;SDS011;11950;51.230;4.012;2023-01-26T05:29:00;42.15;;;18.48;;
23543;SDS011;11950;51.230;4.012;2023-01-26T05:31:27;45.35;;;18.55;;
23543;SDS011;11950;51.230;4.012;2023-01-26T05:33:54;43.75;;;19.85;;
23543;SDS011;11950;51.230;4.012;2023-01-26T05:36:22;44.78;;;18.48;;
23543;SDS011;11950;51.230;4.012;2023-01-26T05:38:49;48.10;;;19.23;;
23543;SDS011;11950;51.230;4.012;2023-01-26T05:41:19;48.40;;;20.05;;
23543;SDS011;11950;51.230;4.012;2023-01-26T05:44:12;43.17;;;18.60;;
23543;SDS011;11950;51.230;4.012;2023-01-26T05:46:45;46.25;;;19.75;;
23543;SDS011;11950;51.230;4.012;2023-01-26T05:49:12;48.00;;;19.00;;
23543;SDS011;11950;51.230;4.012;2023-01-26T05:51:38;45.25;;;18.73;;
23543;SDS011;11950;51.230;4.012;2023-01-26T05:54:06;45.13;;;18.25;;
23543;SDS011;11950;51.230;4.012;2023-01-26T05:56:33;44.20;;;19.10;;
23543;SDS011;11950;51.230;4.012;2023-01-26T05:59:02;40.92;;;17.73;;
23543;SDS011;11950;51.230;4.012;2023-01-26T06:01:29;47.97;;;20.00;;
23543;SDS011;11950;51.230;4.012;2023-01-26T06:03:59;43.80;;;19.75;;
23543;SDS011;11950;51.230;4.012;2023-01-26T06:06:34;42.92;;;17.83;;
23543;SDS011;11950;51.230;4.012;2023-01-26T06:09:15;40.80;;;18.33;;
23543;SDS011;11950;51.230;4.012;2023-01-26T06:11:59;46.05;;;19.30;;
23543;SDS011;11950;51.230;4.012;2023-01-26T06:14:41;41.20;;;15.88;;
23543;SDS011;11950;51.230;4.012;2023-01-26T06:17:07;44.67;;;18.10;;
23543;SDS011;11950;51.230;4.012;2023-01-26T06:19:34;43.92;;;18.35;;
23543;SDS011;11950;51.230;4.012;2023-01-26T06:22:01;42.85;;;17.75;;
23543;SDS011;11950;51.230;4.012;2023-01-26T06:24:29;44.50;;;19.05;;
23543;SDS011;11950;51.230;4.012;2023-01-26T06:26:55;43.70;;;17.65;;
23543;SDS011;11950;51.230;4.012;2023-01-26T06:29:21;45.67;;;18.63;;
23543;SDS011;11950;51.230;4.012;2023-01-26T06:31:48;42.70;;;17.75;;
23543;SDS011;11950;51.230;4.012;2023-01-26T06:34:14;44.10;;;18.92;;
23543;SDS011;11950;51.230;4.012;2023-01-26T06:36:41;42.53;;;18.38;;
23543;SDS011;11950;51.230;4.012;2023-01-26T06:39:12;42.97;;;17.50;;
23543;SDS011;11950;51.230;4.012;2023-01-26T06:41:40;43.38;;;17.88;;
23543;SDS011;11950;51.230;4.012;2023-01-26T06:44:08;39.38;;;17.60;;
23543;SDS011;11950;51.230;4.012;2023-01-26T06:46:35;43.33;;;18.10;;
23543;SDS011;11950;51.230;4.012;2023-01-26T06:49:02;44.38;;;17.05;;
23543;SDS011;11950;51.230;4.012;2023-01-26T06:51:43;44.83;;;19.58;;
23543;SDS011;11950;51.230;4.012;2023-01-26T06:54:10;40.70;;;17.93;;
23543;SDS011;11950;51.230;4.012;2023-01-26T06:56:54;42.40;;;17.20;;
23543;SDS011;11950;51.230;4.012;2023-01-26T06:59:36;40.30;;;17.48;;
23543;SDS011;11950;51.230;4.012;2023-01-26T07:02:25;39.42;;;16.90;;
23543;SDS011;11950;51.230;4.012;2023-01-26T07:04:51;44.30;;;19.17;;
23543;SDS011;11950;51.230;4.012;2023-01-26T07:07:18;44.20;;;18.02;;
23543;SDS011;11950;51.230;4.012;2023-01-26T07:09:44;43.72;;;18.77;;
23543;SDS011;11950;51.230;4.012;2023-01-26T07:12:11;47.50;;;19.25;;
23543;SDS011;11950;51.230;4.012;2023-01-26T07:14:43;50.92;;;20.05;;
23543;SDS011;11950;51.230;4.012;2023-01-26T07:17:09;45.45;;;18.58;;
23543;SDS011;11950;51.230;4.012;2023-01-26T07:19:36;39.67;;;17.73;;
23543;SDS011;11950;51.230;4.012;2023-01-26T07:22:02;39.22;;;16.77;;
23543;SDS011;11950;51.230;4.012;2023-01-26T07:24:29;39.13;;;17.77;;
23543;SDS011;11950;51.230;4.012;2023-01-26T07:26:56;42.10;;;17.52;;
23543;SDS011;11950;51.230;4.012;2023-01-26T07:29:23;39.75;;;17.20;;
23543;SDS011;11950;51.230;4.012;2023-01-26T07:31:49;37.53;;;16.50;;
23543;SDS011;11950;51.230;4.012;2023-01-26T07:34:16;44.30;;;18.50;;
23543;SDS011;11950;51.230;4.012;2023-01-26T07:36:42;40.90;;;18.40;;
23543;SDS011;11950;51.230;4.012;2023-01-26T07:39:10;38.00;;;18.10;;
23543;SDS011;11950;51.230;4.012;2023-01-26T07:41:36;43.08;;;18.05;;
23543;SDS011;11950;51.230;4.012;2023-01-26T07:44:22;42.47;;;19.20;;
23543;SDS011;11950;51.230;4.012;2023-01-26T07:46:48;45.80;;;19.38;;
23543;SDS011;11950;51.230;4.012;2023-01-26T07:49:15;44.30;;;19.20;;
23543;SDS011;11950;51.230;4.012;2023-01-26T07:51:41;47.30;;;18.98;;
23543;SDS011;11950;51.230;4.012;2023-01-26T07:54:08;49.33;;;19.52;;
23543;SDS011;11950;51.230;4.012;2023-01-26T07:56:37;52.95;;;21.05;;
23543;SDS011;11950;51.230;4.012;2023-01-26T07:59:03;51.72;;;21.05;;
23543;SDS011;11950;51.230;4.012;2023-01-26T08:01:30;46.42;;;19.42;;
23543;SDS011;11950;51.230;4.012;2023-01-26T08:03:57;51.25;;;20.95;;
23543;SDS011;11950;51.230;4.012;2023-01-26T08:06:23;54.33;;;21.10;;
23543;SDS011;11950;51.230;4.012;2023-01-26T08:08:50;57.35;;;22.25;;
23543;SDS011;11950;51.230;4.012;2023-01-26T08:11:18;51.88;;;21.17;;
23543;SDS011;11950;51.230;4.012;2023-01-26T08:13:47;56.95;;;21.60;;
23543;SDS011;11950;51.230;4.012;2023-01-26T08:16:13;54.38;;;21.45;;
23543;SDS011;11950;51.230;4.012;2023-01-26T08:18:40;56.83;;;21.83;;
23543;SDS011;11950;51.230;4.012;2023-01-26T08:21:08;57.85;;;20.73;;
23543;SDS011;11950;51.230;4.012;2023-01-26T08:23:35;52.72;;;19.83;;
23543;SDS011;11950;51.230;4.012;2023-01-26T08:26:03;59.00;;;21.13;;
23543;SDS011;11950;51.230;4.012;2023-01-26T08:28:31;57.30;;;22.05;;
23543;SDS011;11950;51.230;4.012;2023-01-26T08:31:07;54.08;;;21.63;;
23543;SDS011;11950;51.230;4.012;2023-01-26T08:33:38;57.83;;;22.15;;
23543;SDS011;11950;51.230;4.012;2023-01-26T08:36:07;55.95;;;21.70;;
23543;SDS011;11950;51.230;4.012;2023-01-26T08:38:36;60.28;;;23.23;;
23543;SDS011;11950;51.230;4.012;2023-01-26T08:41:03;59.20;;;21.98;;
23543;SDS011;11950;51.230;4.012;2023-01-26T08:43:29;56.63;;;23.02;;
23543;SDS011;11950;51.230;4.012;2023-01-26T08:45:56;54.47;;;21.33;;
23543;SDS011;11950;51.230;4.012;2023-01-26T08:48:22;52.97;;;21.23;;
23543;SDS011;11950;51.230;4.012;2023-01-26T08:50:52;54.17;;;20.55;;
23543;SDS011;11950;51.230;4.012;2023-01-26T08:53:20;50.65;;;20.58;;
23543;SDS011;11950;51.230;4.012;2023-01-26T08:55:47;54.15;;;21.35;;
23543;SDS011;11950;51.230;4.012;2023-01-26T08:58:17;50.85;;;19.75;;
23543;SDS011;11950;51.230;4.012;2023-01-26T09:00:45;49.35;;;19.55;;
23543;SDS011;11950;51.230;4.012;2023-01-26T09:03:11;48.90;;;18.85;;
23543;SDS011;11950;51.230;4.012;2023-01-26T09:05:38;43.60;;;18.48;;
23543;SDS011;11950;51.230;4.012;2023-01-26T09:08:05;47.53;;;18.88;;
23543;SDS011;11950;51.230;4.012;2023-01-26T09:10:33;50.38;;;18.30;;
23543;SDS011;11950;51.230;4.012;2023-01-26T09:13:01;44.25;;;18.35;;
23543;SDS011;11950;51.230;4.012;2023-01-26T09:15:27;41.30;;;16.50;;
23543;SDS011;11950;51.230;4.012;2023-01-26T09:17:54;43.22;;;17.75;;
23543;SDS011;11950;51.230;4.012;2023-01-26T09:20:20;42.03;;;17.05;;
23543;SDS011;11950;51.230;4.012;2023-01-26T09:22:46;38.88;;;16.05;;
23543;SDS011;11950;51.230;4.012;2023-01-26T09:25:13;41.10;;;15.38;;
23543;SDS011;11950;51.230;4.012;2023-01-26T09:27:40;38.58;;;15.15;;
23543;SDS011;11950;51.230;4.012;2023-01-26T09:30:09;40.08;;;13.40;;
23543;SDS011;11950;51.230;4.012;2023-01-26T09:32:36;36.95;;;12.88;;
23543;SDS011;11950;51.230;4.012;2023-01-26T09:35:02;38.03;;;12.48;;
23543;SDS011;11950;51.230;4.012;2023-01-26T09:37:29;29.02;;;9.73;;
23543;SDS011;11950;51.230;4.012;2023-01-26T09:39:55;27.67;;;8.32;;
23543;SDS011;11950;51.230;4.012;2023-01-26T09:50:18;19.17;;;4.00;;
23543;SDS011;11950;51.230;4.012;2023-01-26T09:55:19;24.77;;;5.15;;
23543;SDS011;11950;51.230;4.012;2023-01-26T10:00:25;39.75;;;9.77;;
23543;SDS011;11950;51.230;4.012;2023-01-26T10:09:05;25.13;;;2.92;;
23543;SDS011;11950;51.230;4.012;2023-01-26T10:11:40;31.98;;;4.65;;
23543;SDS011;11950;51.230;4.012;2023-01-26T10:14:15;21.15;;;3.55;;
23543;SDS011;11950;51.230;4.012;2023-01-26T10:16:50;20.40;;;3.58;;
23543;SDS011;11950;51.230;4.012;2023-01-26T10:22:02;19.55;;;3.00;;
23543;SDS011;11950;51.230;4.012;2023-01-26T10:24:33;48.28;;;9.40;;
23543;SDS011;11950;51.230;4.012;2023-01-26T10:26:59;30.52;;;6.07;;
23543;SDS011;11950;51.230;4.012;2023-01-26T10:29:26;48.92;;;10.43;;
23543;SDS011;11950;51.230;4.012;2023-01-26T10:31:52;24.52;;;3.58;;
23543;SDS011;11950;51.230;4.012;2023-01-26T10:34:23;23.42;;;2.80;;
23543;SDS011;11950;51.230;4.012;2023-01-26T10:36:52;21.98;;;2.35;;
23543;SDS011;11950;51.230;4.012;2023-01-26T10:39:44;15.18;;;1.77;;
23543;SDS011;11950;51.230;4.012;2023-01-26T10:42:22;15.55;;;2.55;;
23543;SDS011;11950;51.230;4.012;2023-01-26T10:44:52;17.77;;;2.33;;
23543;SDS011;11950;51.230;4.012;2023-01-26T10:47:19;16.13;;;2.40;;
23543;SDS011;11950;51.230;4.012;2023-01-26T10:49:48;21.38;;;2.50;;
23543;SDS011;11950;51.230;4.012;2023-01-26T10:54:46;16.73;;;2.33;;
23543;SDS011;11950;51.230;4.012;2023-01-26T10:57:15;19.90;;;2.15;;
23543;SDS011;11950;51.230;4.012;2023-01-26T11:00:00;15.60;;;1.63;;
23543;SDS011;11950;51.230;4.012;2023-01-26T11:02:33;23.13;;;2.55;;
23543;SDS011;11950;51.230;4.012;2023-01-26T11:15:46;17.17;;;2.17;;
23543;SDS011;11950;51.230;4.012;2023-01-26T11:21:27;16.20;;;2.53;;
23543;SDS011;11950;51.230;4.012;2023-01-26T11:34:31;21.40;;;2.65;;
23543;SDS011;11950;51.230;4.012;2023-01-26T11:37:37;12.75;;;2.63;;
23543;SDS011;11950;51.230;4.012;2023-01-26T11:42:50;13.45;;;1.80;;
23543;SDS011;11950;51.230;4.012;2023-01-26T11:50:49;20.90;;;1.50;;
23543;SDS011;11950;51.230;4.012;2023-01-26T11:59:23;17.90;;;2.10;;
23543;SDS011;11950;51.230;4.012;2023-01-26T12:01:58;18.80;;;2.20;;
23543;SDS011;11950;51.230;4.012;2023-01-26T12:04:45;20.38;;;2.13;;
23543;SDS011;11950;51.230;4.012;2023-01-26T12:07:22;16.02;;;2.35;;
23543;SDS011;11950;51.230;4.012;2023-01-26T12:09:59;16.63;;;2.20;;
23543;SDS011;11950;51.230;4.012;2023-01-26T12:12:39;26.40;;;2.05;;
23543;SDS011;11950;51.230;4.012;2023-01-26T12:15:12;17.73;;;2.35;;
23543;SDS011;11950;51.230;4.012;2023-01-26T12:20:43;17.63;;;2.08;;
23543;SDS011;11950;51.230;4.012;2023-01-26T12:31:50;20.88;;;2.05;;
23543;SDS011;11950;51.230;4.012;2023-01-26T12:34:31;9.68;;;1.27;;
23543;SDS011;11950;51.230;4.012;2023-01-26T12:45:09;18.23;;;2.00;;
23543;SDS011;11950;51.230;4.012;2023-01-26T12:47:43;13.10;;;2.40;;
23543;SDS011;11950;51.230;4.012;2023-01-26T12:50:23;12.45;;;1.52;;
23543;SDS011;11950;51.230;4.012;2023-01-26T12:52:55;17.23;;;2.20;;
23543;SDS011;11950;51.230;4.012;2023-01-26T12:55:39;11.35;;;1.92;;
23543;SDS011;11950;51.230;4.012;2023-01-26T12:58:24;11.48;;;2.20;;
23543;SDS011;11950;51.230;4.012;2023-01-26T13:00:59;19.50;;;2.17;;
23543;SDS011;11950;51.230;4.012;2023-01-26T13:03:30;18.73;;;2.72;;
23543;SDS011;11950;51.230;4.012;2023-01-26T13:06:00;14.80;;;1.83;;
23543;SDS011;11950;51.230;4.012;2023-01-26T13:08:49;11.90;;;1.30;;
23543;SDS011;11950;51.230;4.012;2023-01-26T13:17:39;13.45;;;1.80;;
23543;SDS011;11950;51.230;4.012;2023-01-26T13:19:53;13.80;;;1.65;;
23543;SDS011;11950;51.230;4.012;2023-01-26T13:24:57;9.90;;;1.40;;
23543;SDS011;11950;51.230;4.012;2023-01-26T13:35:16;13.73;;;1.42;;
23543;SDS011;11950;51.230;4.012;2023-01-26T13:40:22;13.75;;;1.27;;
23543;SDS011;11950;51.230;4.012;2023-01-26T13:43:06;13.50;;;2.10;;
23543;SDS011;11950;51.230;4.012;2023-01-26T13:48:49;10.45;;;1.55;;
23543;SDS011;11950;51.230;4.012;2023-01-26T13:51:17;9.48;;;1.27;;
23543;SDS011;11950;51.230;4.012;2023-01-26T13:54:09;6.70;;;1.25;;
23543;SDS011;11950;51.230;4.012;2023-01-26T13:56:42;15.00;;;1.60;;
23543;SDS011;11950;51.230;4.012;2023-01-26T13:59:24;10.80;;;2.00;;
23543;SDS011;11950;51.230;4.012;2023-01-26T14:01:52;15.32;;;2.10;;
23543;SDS011;11950;51.230;4.012;2023-01-26T14:04:23;13.95;;;2.00;;
23543;SDS011;11950;51.230;4.012;2023-01-26T14:07:14;11.15;;;2.05;;
23543;SDS011;11950;51.230;4.012;2023-01-26T14:12:16;11.10;;;1.48;;
23543;SDS011;11950;51.230;4.012;2023-01-26T14:14:56;16.02;;;1.48;;
23543;SDS011;11950;51.230;4.012;2023-01-26T14:17:27;15.20;;;1.80;;
23543;SDS011;11950;51.230;4.012;2023-01-26T14:19:58;13.70;;;1.88;;
23543;SDS011;11950;51.230;4.012;2023-01-26T14:22:26;13.82;;;1.95;;
23543;SDS011;11950;51.230;4.012;2023-01-26T14:24:52;13.57;;;1.77;;
23543;SDS011;11950;51.230;4.012;2023-01-26T14:27:39;14.38;;;1.52;;
23543;SDS011;11950;51.230;4.012;2023-01-26T14:33:13;11.35;;;1.55;;
23543;SDS011;11950;51.230;4.012;2023-01-26T14:35:41;12.23;;;1.20;;
23543;SDS011;11950;51.230;4.012;2023-01-26T14:38:19;14.98;;;1.50;;
23543;SDS011;11950;51.230;4.012;2023-01-26T14:40:49;14.05;;;1.50;;
23543;SDS011;11950;51.230;4.012;2023-01-26T14:43:18;18.25;;;1.60;;
23543;SDS011;11950;51.230;4.012;2023-01-26T14:45:47;11.55;;;2.03;;
23543;SDS011;11950;51.230;4.012;2023-01-26T14:48:25;11.68;;;1.50;;
23543;SDS011;11950;51.230;4.012;2023-01-26T14:50:57;10.35;;;1.50;;
23543;SDS011;11950;51.230;4.012;2023-01-26T14:53:24;8.05;;;1.13;;
23543;SDS011;11950;51.230;4.012;2023-01-26T14:55:51;17.92;;;1.73;;
23543;SDS011;11950;51.230;4.012;2023-01-26T14:58:23;14.05;;;1.08;;
23543;SDS011;11950;51.230;4.012;2023-01-26T15:00:55;10.57;;;1.60;;
23543;SDS011;11950;51.230;4.012;2023-01-26T15:08:30;10.88;;;1.27;;
23543;SDS011;11950;51.230;4.012;2023-01-26T15:11:00;10.55;;;1.33;;
23543;SDS011;11950;51.230;4.012;2023-01-26T15:13:46;10.60;;;1.20;;
23543;SDS011;11950;51.230;4.012;2023-01-26T15:16:18;9.98;;;1.20;;
23543;SDS011;11950;51.230;4.012;2023-01-26T15:18:58;9.15;;;1.25;;
23543;SDS011;11950;51.230;4.012;2023-01-26T15:21:29;6.85;;;1.20;;
23543;SDS011;11950;51.230;4.012;2023-01-26T15:24:04;10.65;;;1.13;;
23543;SDS011;11950;51.230;4.012;2023-01-26T15:26:35;8.90;;;1.20;;
23543;SDS011;11950;51.230;4.012;2023-01-26T15:29:15;10.15;;;1.40;;
23543;SDS011;11950;51.230;4.012;2023-01-26T15:31:53;9.02;;;1.27;;
23543;SDS011;11950;51.230;4.012;2023-01-26T15:34:31;12.60;;;1.52;;
23543;SDS011;11950;51.230;4.012;2023-01-26T15:37:26;7.60;;;1.10;;
23543;SDS011;11950;51.230;4.012;2023-01-26T15:39:54;11.07;;;1.20;;
23543;SDS011;11950;51.230;4.012;2023-01-26T15:42:22;9.50;;;1.23;;
23543;SDS011;11950;51.230;4.012;2023-01-26T15:44:56;13.85;;;1.40;;
23543;SDS011;11950;51.230;4.012;2023-01-26T15:47:22;10.45;;;1.40;;
23543;SDS011;11950;51.230;4.012;2023-01-26T15:49:49;11.82;;;1.58;;
23543;SDS011;11950;51.230;4.012;2023-01-26T15:52:16;7.75;;;1.08;;
23543;SDS011;11950;51.230;4.012;2023-01-26T15:54:45;9.80;;;1.40;;
23543;SDS011;11950;51.230;4.012;2023-01-26T15:57:11;11.55;;;1.80;;
23543;SDS011;11950;51.230;4.012;2023-01-26T15:59:38;8.95;;;1.10;;
23543;SDS011;11950;51.230;4.012;2023-01-26T16:02:10;13.02;;;1.25;;
23543;SDS011;11950;51.230;4.012;2023-01-26T16:04:42;11.73;;;1.25;;
23543;SDS011;11950;51.230;4.012;2023-01-26T16:07:12;10.90;;;1.33;;
23543;SDS011;11950;51.230;4.012;2023-01-26T16:09:40;14.57;;;1.70;;
23543;SDS011;11950;51.230;4.012;2023-01-26T16:12:09;12.02;;;2.10;;
23543;SDS011;11950;51.230;4.012;2023-01-26T16:14:39;8.68;;;1.45;;
23543;SDS011;11950;51.230;4.012;2023-01-26T16:17:10;11.68;;;1.67;;
23543;SDS011;11950;51.230;4.012;2023-01-26T16:19:42;7.75;;;1.40;;
23543;SDS011;11950;51.230;4.012;2023-01-26T16:22:09;7.63;;;1.45;;
23543;SDS011;11950;51.230;4.012;2023-01-26T16:24:36;13.25;;;1.50;;
23543;SDS011;11950;51.230;4.012;2023-01-26T16:27:04;9.95;;;1.00;;
23543;SDS011;11950;51.230;4.012;2023-01-26T16:29:31;10.00;;;1.33;;
23543;SDS011;11950;51.230;4.012;2023-01-26T16:31:58;13.57;;;1.70;;
23543;SDS011;11950;51.230;4.012;2023-01-26T16:34:27;16.15;;;1.40;;
23543;SDS011;11950;51.230;4.012;2023-01-26T16:36:54;7.65;;;1.48;;
23543;SDS011;11950;51.230;4.012;2023-01-26T16:39:21;10.95;;;1.88;;
23543;SDS011;11950;51.230;4.012;2023-01-26T16:41:47;9.63;;;1.45;;
23543;SDS011;11950;51.230;4.012;2023-01-26T16:44:14;8.35;;;1.10;;
23543;SDS011;11950;51.230;4.012;2023-01-26T16:46:42;9.40;;;1.15;;
23543;SDS011;11950;51.230;4.012;2023-01-26T16:49:13;4.97;;;1.17;;
23543;SDS011;11950;51.230;4.012;2023-01-26T16:51:40;11.95;;;1.00;;